Cavok V — PB7130 — position and weather

sailwx.info

Track history (hours):
 
Tides and Currents Weather Stations Pressure Air Temp Water Temp Dewpoint Dewpoint Depression Visibility Wind Speed Wind Dir Waves Ship Positions

Cavok V

Last reported at 2015-Jan-21 12:31 UTC. Time now 2015-Mar-30 20:03 UTC.
Position N 51°37' E 005°30'.
Warning: this ship's position is months out of date.

Type: Sailing vessel. MMSI: 244690846.

Date/timePositionNaut miles runAvg speedWind from/ knotsBaromVisibWave heightAir tempDewpointWater temp
2015-Jan-21 12:31N 51°37' E 005°30'0 0.0
2015-Jan-21 11:32N 51°37' E 005°30'0 0.0
2015-Jan-21 10:33N 51°37' E 005°30'0 0.0
2015-Jan-21 09:34N 51°37' E 005°30'0 0.0
2015-Jan-21 08:32N 51°37' E 005°30'0 0.0
2015-Jan-21 07:32N 51°37' E 005°30'0 0.0
2015-Jan-21 06:33N 51°37' E 005°30'0 0.0
2015-Jan-21 05:33N 51°37' E 005°30'0 0.0
2015-Jan-21 04:32N 51°37' E 005°30'0 0.0
2015-Jan-21 03:33N 51°37' E 005°30'0 0.0
2015-Jan-21 02:29N 51°37' E 005°30'0 0.0
2015-Jan-21 01:32N 51°37' E 005°30'0 0.0
2015-Jan-21 00:33N 51°37' E 005°30'0 0.0
2015-Jan-20 23:33N 51°37' E 005°30'0 0.0
2015-Jan-20 22:31N 51°37' E 005°30'0 0.0
2015-Jan-20 21:30N 51°37' E 005°30'0 0.0
2015-Jan-20 20:33N 51°37' E 005°30'0 0.0
2015-Jan-20 19:31N 51°37' E 005°30'0 0.0
2015-Jan-20 18:33N 51°37' E 005°30'0 0.0
2015-Jan-20 17:31N 51°37' E 005°30'0 0.0
2015-Jan-20 16:33N 51°37' E 005°30'0 0.3
2015-Jan-20 15:33N 51°37' E 005°31'0 0.0
2015-Jan-20 14:33N 51°37' E 005°31'0 0.3
2015-Jan-20 13:32N 51°37' E 005°30'0 0.1
2015-Jan-20 12:29N 51°37' E 005°31'2 1.8
2015-Jan-20 11:33N 51°38' E 005°29'3 2.8
2015-Jan-20 10:34N 51°40' E 005°24'3 3.1
2015-Jan-20 09:33N 51°42' E 005°21'3 2.8
2015-Jan-20 08:34N 51°45' E 005°20'3 3.5
2015-Jan-20 07:33N 51°48' E 005°21'8 8.3
2015-Jan-20 06:34N 51°54' E 005°31'11 9.2
2015-Jan-20 05:19N 51°52' E 005°50'0 0.1
2015-Jan-20 03:27N 51°51' E 005°50'0 0.0
2015-Jan-20 02:04N 51°51' E 005°50'0 0.0
2015-Jan-19 23:27N 51°51' E 005°50'0 0.0
2015-Jan-19 21:32N 51°51' E 005°50'0 0.0
2015-Jan-19 14:04N 51°52' E 005°50'11 7.2
2015-Jan-19 12:33N 51°51' E 006°07'41 7.7
2015-Jan-19 07:15N 51°17' E 006°42'5 6.6
2015-Jan-19 06:33N 51°12' E 006°44'7 6.9
2015-Jan-19 05:33N 51°07' E 006°52'12 1.2
2015-Jan-18 20:07N 50°56' E 006°58'  
2015-Jan-13 09:10N 49°25' E 008°40'2 3.3
2015-Jan-13 08:33N 49°27' E 008°38'0 0.0
2015-Jan-13 07:24N 49°27' E 008°38'0 0.0
2015-Jan-13 06:11N 49°27' E 008°38'0 0.0
2015-Jan-13 04:30N 49°27' E 008°38'0 0.0
2015-Jan-13 03:28N 49°27' E 008°38'0 0.0
2015-Jan-13 02:32N 49°27' E 008°38'0 0.0
2015-Jan-13 01:29N 49°27' E 008°38'0 0.0
2015-Jan-13 00:32N 49°27' E 008°38'0 0.0
2015-Jan-12 17:10N 49°27' E 008°38'  
Track history (hours):
 
Tides and Currents Weather Stations Pressure Air Temp Water Temp Dewpoint Dewpoint Depression Visibility Wind Speed Wind Dir Waves Ship Positions

Cavok V

Last reported at 2015-Jan-21 12:31 UTC. Time now 2015-Mar-30 20:03 UTC.
Position N 51°37' E 005°30'.
Warning: this ship's position is months out of date.

Type: Sailing vessel. MMSI: 244690846.

Date/timePositionNaut miles runAvg speedWind from/ knotsBaromVisibWave heightAir tempDewpointWater temp
2015-Jan-21 12:31N 51°37' E 005°30'0 0.0
2015-Jan-21 11:32N 51°37' E 005°30'0 0.0
2015-Jan-21 10:33N 51°37' E 005°30'0 0.0
2015-Jan-21 09:34N 51°37' E 005°30'0 0.0
2015-Jan-21 08:32N 51°37' E 005°30'0 0.0
2015-Jan-21 07:32N 51°37' E 005°30'0 0.0
2015-Jan-21 06:33N 51°37' E 005°30'0 0.0
2015-Jan-21 05:33N 51°37' E 005°30'0 0.0
2015-Jan-21 04:32N 51°37' E 005°30'0 0.0
2015-Jan-21 03:33N 51°37' E 005°30'0 0.0
2015-Jan-21 02:29N 51°37' E 005°30'0 0.0
2015-Jan-21 01:32N 51°37' E 005°30'0 0.0
2015-Jan-21 00:33N 51°37' E 005°30'0 0.0
2015-Jan-20 23:33N 51°37' E 005°30'0 0.0
2015-Jan-20 22:31N 51°37' E 005°30'0 0.0
2015-Jan-20 21:30N 51°37' E 005°30'0 0.0
2015-Jan-20 20:33N 51°37' E 005°30'0 0.0
2015-Jan-20 19:31N 51°37' E 005°30'0 0.0
2015-Jan-20 18:33N 51°37' E 005°30'0 0.0
2015-Jan-20 17:31N 51°37' E 005°30'0 0.0
2015-Jan-20 16:33N 51°37' E 005°30'0 0.3
2015-Jan-20 15:33N 51°37' E 005°31'0 0.0
2015-Jan-20 14:33N 51°37' E 005°31'0 0.3
2015-Jan-20 13:32N 51°37' E 005°30'0 0.1
2015-Jan-20 12:29N 51°37' E 005°31'2 1.8
2015-Jan-20 11:33N 51°38' E 005°29'3 2.8
2015-Jan-20 10:34N 51°40' E 005°24'3 3.1
2015-Jan-20 09:33N 51°42' E 005°21'3 2.8
2015-Jan-20 08:34N 51°45' E 005°20'3 3.5
2015-Jan-20 07:33N 51°48' E 005°21'8 8.3
2015-Jan-20 06:34N 51°54' E 005°31'11 9.2
2015-Jan-20 05:19N 51°52' E 005°50'0 0.1
2015-Jan-20 03:27N 51°51' E 005°50'0 0.0
2015-Jan-20 02:04N 51°51' E 005°50'0 0.0
2015-Jan-19 23:27N 51°51' E 005°50'0 0.0
2015-Jan-19 21:32N 51°51' E 005°50'0 0.0
2015-Jan-19 14:04N 51°52' E 005°50'11 7.2
2015-Jan-19 12:33N 51°51' E 006°07'41 7.7
2015-Jan-19 07:15N 51°17' E 006°42'5 6.6
2015-Jan-19 06:33N 51°12' E 006°44'7 6.9
2015-Jan-19 05:33N 51°07' E 006°52'12 1.2
2015-Jan-18 20:07N 50°56' E 006°58'  
2015-Jan-13 09:10N 49°25' E 008°40'2 3.3
2015-Jan-13 08:33N 49°27' E 008°38'0 0.0
2015-Jan-13 07:24N 49°27' E 008°38'0 0.0
2015-Jan-13 06:11N 49°27' E 008°38'0 0.0
2015-Jan-13 04:30N 49°27' E 008°38'0 0.0
2015-Jan-13 03:28N 49°27' E 008°38'0 0.0
2015-Jan-13 02:32N 49°27' E 008°38'0 0.0
2015-Jan-13 01:29N 49°27' E 008°38'0 0.0
2015-Jan-13 00:32N 49°27' E 008°38'0 0.0
2015-Jan-12 17:10N 49°27' E 008°38'  

Dump ship's entire track history